Time;durP1;ratioP1;P1;durP2;ratioP2;P2;SDS_P1;SDS_P2;PMS_P1;PMS_P2;Temp;Humidity;BMP_temperature;BMP_pressure;BME280_temperature;BME280_humidity;BME280_pressure;Samples;Min_cycle;Max_cycle;Signal;HPM_P1;HPM_P2
2023/12/20 00:01:59;;;;;;;13.82;6.43;;;0.40;99.90;;;;;;5006384;28;20053;-58
2023/12/20 00:04:26;;;;;;;12.15;5.90;;;0.40;99.90;;;;;;5007677;28;20042;-53
2023/12/20 00:06:52;;;;;;;13.30;6.32;;;0.40;99.90;;;;;;5001193;28;20104;-55
2023/12/20 00:09:19;;;;;;;7.47;5.30;;;0.40;99.90;;;;;;5001112;28;20116;-56
2023/12/20 00:11:46;;;;;;;11.90;5.80;;;0.40;99.90;;;;;;5001421;28;20057;-53
2023/12/20 00:14:13;;;;;;;12.20;6.30;;;0.40;99.90;;;;;;5001086;28;20259;-54
2023/12/20 00:16:40;;;;;;;15.48;6.68;;;0.40;99.90;;;;;;4998009;28;20037;-56
2023/12/20 00:19:07;;;;;;;17.23;6.50;;;0.30;99.90;;;;;;5008587;28;20037;-56
2023/12/20 00:21:34;;;;;;;14.98;7.43;;;0.30;99.90;;;;;;4996114;28;20124;-54
2023/12/20 00:24:01;;;;;;;17.80;8.50;;;0.30;99.90;;;;;;4997261;28;20053;-54
2023/12/20 00:26:28;;;;;;;19.65;8.77;;;0.30;99.90;;;;;;4992926;28;20048;-58
2023/12/20 00:28:55;;;;;;;22.10;9.73;;;0.20;99.90;;;;;;5001235;28;20052;-58
2023/12/20 00:31:22;;;;;;;20.33;8.48;;;0.10;99.90;;;;;;4997393;28;20439;-55
2023/12/20 00:33:49;;;;;;;15.00;6.07;;;0.10;99.90;;;;;;4996739;28;20475;-55
2023/12/20 00:36:16;;;;;;;16.80;6.80;;;0.10;99.90;;;;;;4992947;28;20394;-54
2023/12/20 00:38:42;;;;;;;8.88;3.85;;;0.20;99.90;;;;;;4996662;28;20045;-55
2023/12/20 00:41:09;;;;;;;12.43;6.38;;;0.30;99.90;;;;;;4993443;28;20057;-57
2023/12/20 00:43:36;;;;;;;13.88;6.32;;;0.30;99.90;;;;;;4996485;28;20054;-55
2023/12/20 00:46:03;;;;;;;10.00;5.28;;;0.40;99.90;;;;;;4991678;28;20058;-56
2023/12/20 00:48:31;;;;;;;10.65;4.90;;;0.40;99.90;;;;;;4992103;28;20145;-55
2023/12/20 00:50:58;;;;;;;10.23;4.82;;;0.40;99.90;;;;;;4992778;28;20116;-56
2023/12/20 00:53:24;;;;;;;11.95;4.43;;;0.50;99.90;;;;;;4994416;28;21355;-58
2023/12/20 00:55:51;;;;;;;7.38;2.90;;;0.50;99.90;;;;;;4992946;28;20698;-58
2023/12/20 00:58:18;;;;;;;8.43;3.80;;;0.60;99.90;;;;;;4996868;28;20515;-56
2023/12/20 01:00:45;;;;;;;8.77;4.93;;;0.60;99.90;;;;;;4999283;28;20120;-55
2023/12/20 01:03:12;;;;;;;;;;;0.60;99.90;;;;;;4993941;28;20038;-56
2023/12/20 01:05:39;;;;;;;14.10;5.88;;;0.50;99.90;;;;;;5001546;28;19964;-56
2023/12/20 01:08:06;;;;;;;16.38;7.45;;;0.30;99.90;;;;;;4996517;28;20136;-55
2023/12/20 01:10:33;;;;;;;;;;;0.30;99.90;;;;;;4993662;28;20034;-58
2023/12/20 01:12:59;;;;;;;17.20;6.35;;;0.30;99.90;;;;;;4994800;28;19926;-58
2023/12/20 01:15:26;;;;;;;11.07;6.28;;;0.20;99.90;;;;;;4998171;28;20049;-59
2023/12/20 01:17:53;;;;;;;9.68;5.07;;;0.10;99.90;;;;;;5010302;28;20685;-56
2023/12/20 01:20:20;;;;;;;17.38;7.53;;;0.00;99.90;;;;;;5009740;28;20046;-54
2023/12/20 01:22:47;;;;;;;13.02;6.60;;;0.10;99.90;;;;;;5009075;28;20494;-58
2023/12/20 01:25:14;;;;;;;12.95;6.65;;;0.10;99.90;;;;;;5010984;28;20456;-59
2023/12/20 01:27:41;;;;;;;14.77;7.38;;;0.10;99.90;;;;;;5009271;28;20037;-56
2023/12/20 01:30:08;;;;;;;15.77;7.00;;;0.10;99.90;;;;;;5008651;28;20041;-59
2023/12/20 01:32:35;;;;;;;15.27;6.88;;;0.10;99.90;;;;;;5012053;28;20560;-59
2023/12/20 01:35:02;;;;;;;17.48;6.78;;;0.00;99.90;;;;;;5011116;28;20050;-59
2023/12/20 01:37:29;;;;;;;;;;;-0.10;99.90;;;;;;5011992;28;20042;-57
2023/12/20 01:39:56;;;;;;;14.45;6.78;;;-0.10;99.90;;;;;;5006020;28;19972;-57
2023/12/20 01:42:23;;;;;;;17.38;7.85;;;-0.10;99.90;;;;;;5011842;28;20057;-57
2023/12/20 01:44:50;;;;;;;13.30;7.05;;;-0.10;99.90;;;;;;5011257;28;20038;-57
2023/12/20 01:47:17;;;;;;;15.23;7.50;;;-0.10;99.90;;;;;;5010153;28;20060;-58
2023/12/20 01:49:44;;;;;;;14.98;6.90;;;0.00;99.90;;;;;;5011805;28;20503;-56
2023/12/20 01:52:11;;;;;;;13.77;7.75;;;0.10;99.90;;;;;;5002720;28;20048;-59
2023/12/20 01:54:41;;;;;;;16.98;7.80;;;0.10;99.90;;;;;;5006954;28;20124;-57
2023/12/20 01:57:09;;;;;;;14.65;7.22;;;0.10;99.90;;;;;;5010712;28;20046;-57
2023/12/20 01:59:40;;;;;;;13.18;6.95;;;0.20;99.90;;;;;;5011125;28;20042;-57
2023/12/20 02:02:07;;;;;;;11.60;6.47;;;0.20;99.90;;;;;;5005584;28;20045;-57
2023/12/20 02:04:35;;;;;;;13.27;6.80;;;0.20;99.90;;;;;;5011508;28;20487;-56
2023/12/20 02:07:02;;;;;;;;;;;0.20;99.90;;;;;;5011434;28;20050;-58
2023/12/20 02:09:29;;;;;;;13.00;6.78;;;0.30;99.90;;;;;;5011643;28;19925;-55
2023/12/20 02:11:56;;;;;;;14.32;6.93;;;0.30;99.90;;;;;;5007145;28;20048;-59
2023/12/20 02:14:23;;;;;;;15.70;6.13;;;0.20;99.90;;;;;;5011653;28;20053;-56
2023/12/20 02:16:49;;;;;;;14.52;6.55;;;0.00;99.90;;;;;;5010718;28;20049;-59
2023/12/20 02:19:18;;;;;;;16.65;7.13;;;0.00;99.90;;;;;;5007090;28;20048;-58
2023/12/20 02:21:45;;;;;;;16.33;7.10;;;0.00;99.90;;;;;;5008416;28;20054;-58
2023/12/20 02:24:12;;;;;;;9.07;4.68;;;-0.10;99.90;;;;;;5011064;28;20141;-57
2023/12/20 02:26:39;;;;;;;15.10;7.25;;;-0.10;99.90;;;;;;5012834;28;20041;-56
2023/12/20 02:29:09;;;;;;;15.82;7.10;;;-0.10;99.90;;;;;;5010014;28;20051;-57
2023/12/20 02:31:35;;;;;;;12.27;6.72;;;-0.20;99.90;;;;;;5015042;28;20046;-57
2023/12/20 02:34:02;;;;;;;14.13;7.07;;;-0.20;99.90;;;;;;5011388;28;20902;-59
2023/12/20 02:36:29;;;;;;;14.43;7.00;;;-0.20;99.90;;;;;;5014853;28;20037;-57
2023/12/20 02:38:56;;;;;;;15.48;6.68;;;-0.20;99.90;;;;;;5009288;28;20034;-54
2023/12/20 02:41:22;;;;;;;14.70;7.03;;;-0.40;99.90;;;;;;5015324;28;20495;-58
2023/12/20 02:43:49;;;;;;;14.88;7.53;;;-0.30;99.90;;;;;;5014484;28;20064;-59
2023/12/20 02:46:17;;;;;;;19.33;7.55;;;-0.20;99.90;;;;;;5004910;28;20048;-57
2023/12/20 02:48:44;;;;;;;13.00;6.68;;;-0.20;99.90;;;;;;5014837;28;20057;-54
2023/12/20 02:51:11;;;;;;;14.23;7.28;;;-0.10;99.90;;;;;;5014480;28;20562;-57
2023/12/20 02:53:37;;;;;;;14.60;7.18;;;0.00;99.90;;;;;;5019525;23;20051;-57
2023/12/20 02:56:04;;;;;;;17.33;7.85;;;0.00;99.90;;;;;;5032683;28;20041;-58
2023/12/20 02:58:31;;;;;;;15.95;6.93;;;0.10;99.90;;;;;;5032528;28;20060;-59
2023/12/20 03:00:58;;;;;;;15.63;7.38;;;0.10;99.90;;;;;;5033937;28;20461;-59
2023/12/20 03:03:25;;;;;;;14.43;6.78;;;0.20;99.90;;;;;;5032776;28;20576;-57
2023/12/20 03:05:51;;;;;;;13.93;7.47;;;0.30;99.90;;;;;;5033639;28;20099;-57
2023/12/20 03:08:18;;;;;;;12.88;6.55;;;0.40;99.90;;;;;;5025770;28;20041;-57
2023/12/20 03:10:45;;;;;;;9.73;4.50;;;0.40;99.90;;;;;;5032684;28;20046;-58
2023/12/20 03:13:12;;;;;;;11.68;5.15;;;0.50;99.90;;;;;;5033719;28;20064;-60
2023/12/20 03:15:39;;;;;;;11.43;5.15;;;0.50;99.90;;;;;;5033089;28;20037;-58
2023/12/20 03:18:06;;;;;;;7.68;4.63;;;0.50;99.90;;;;;;5033797;28;20394;-57
2023/12/20 03:20:35;;;;;;;6.68;4.10;;;0.60;99.90;;;;;;5031863;28;20099;-58
2023/12/20 03:23:02;;;;;;;5.25;3.15;;;0.70;99.90;;;;;;5033611;28;20057;-57
2023/12/20 03:25:29;;;;;;;7.80;4.10;;;0.80;99.90;;;;;;5030773;28;20112;-59
2023/12/20 03:27:56;;;;;;;8.15;4.20;;;0.80;99.90;;;;;;5038178;28;20029;-58
2023/12/20 03:30:23;;;;;;;8.43;3.95;;;0.90;99.90;;;;;;5031621;28;20061;-58
2023/12/20 03:32:50;;;;;;;12.77;4.05;;;0.90;99.90;;;;;;5018024;28;20183;-58
2023/12/20 03:35:17;;;;;;;11.75;6.15;;;0.90;99.90;;;;;;5016198;28;20132;-56
2023/12/20 03:37:43;;;;;;;14.18;6.40;;;0.90;99.90;;;;;;5031849;28;20044;-57
2023/12/20 03:40:11;;;;;;;13.90;7.13;;;0.70;99.90;;;;;;5031744;28;20056;-56
2023/12/20 03:42:37;;;;;;;16.25;7.13;;;0.60;99.90;;;;;;5031756;28;20061;-59
2023/12/20 03:45:05;;;;;;;17.05;6.82;;;0.60;99.90;;;;;;5031981;28;20048;-57
2023/12/20 03:47:31;;;;;;;;;;;0.60;99.90;;;;;;5033386;28;20088;-58
2023/12/20 03:49:58;;;;;;;14.85;5.60;;;0.70;99.90;;;;;;5033854;28;19971;-56
2023/12/20 03:52:25;;;;;;;8.75;4.05;;;0.70;99.90;;;;;;5031789;28;20099;-60
2023/12/20 03:54:52;;;;;;;5.90;3.40;;;0.80;99.90;;;;;;5033233;28;20420;-57
2023/12/20 03:57:19;;;;;;;5.82;2.90;;;1.00;99.90;;;;;;5029697;28;20037;-58
2023/12/20 03:59:46;;;;;;;4.25;2.17;;;1.00;99.90;;;;;;5026969;28;20045;-59
2023/12/20 04:02:13;;;;;;;7.25;3.88;;;1.10;99.90;;;;;;5033352;28;20056;-58
2023/12/20 04:04:40;;;;;;;6.30;3.88;;;1.20;99.90;;;;;;5029124;28;20045;-59
2023/12/20 04:07:07;;;;;;;11.80;5.38;;;1.20;99.90;;;;;;5032436;28;20053;-58
2023/12/20 04:09:34;;;;;;;9.13;5.65;;;1.20;99.90;;;;;;5031552;28;20048;-57
2023/12/20 04:12:01;;;;;;;11.57;5.28;;;1.20;99.90;;;;;;5032253;28;20038;-58
2023/12/20 04:14:27;;;;;;;7.28;3.78;;;1.10;99.90;;;;;;5031338;28;20456;-57
2023/12/20 04:16:54;;;;;;;10.93;5.43;;;1.10;99.90;;;;;;5032919;28;20033;-57
2023/12/20 04:19:21;;;;;;;12.32;5.97;;;1.00;99.90;;;;;;5032154;28;20041;-57
2023/12/20 04:21:48;;;;;;;;;;;0.90;99.90;;;;;;5033409;28;20052;-60
2023/12/20 04:24:15;;;;;;;11.30;5.20;;;1.00;99.90;;;;;;5032132;28;20019;-59
2023/12/20 04:26:42;;;;;;;11.30;5.95;;;1.00;99.90;;;;;;5031773;28;20042;-59
2023/12/20 04:29:09;;;;;;;9.57;4.10;;;1.00;99.90;;;;;;5032809;28;20055;-59
2023/12/20 04:31:35;;;;;;;8.13;4.80;;;1.00;99.90;;;;;;5032972;28;20033;-55
2023/12/20 04:34:02;;;;;;;14.40;7.03;;;0.90;99.90;;;;;;5029808;28;20045;-58
2023/12/20 04:36:29;;;;;;;14.75;6.28;;;0.80;99.90;;;;;;5028690;28;20037;-56
2023/12/20 04:38:56;;;;;;;10.57;6.05;;;0.80;99.90;;;;;;5030774;28;20362;-58
2023/12/20 04:41:23;;;;;;;10.68;5.97;;;0.70;99.90;;;;;;5031840;28;20042;-59
2023/12/20 04:43:50;;;;;;;13.35;6.50;;;0.70;99.90;;;;;;5032651;28;20398;-58
2023/12/20 04:46:16;;;;;;;19.55;7.28;;;0.80;99.90;;;;;;5030996;28;20057;-57
2023/12/20 04:48:43;;;;;;;12.63;7.15;;;0.70;99.90;;;;;;5030707;28;20072;-57
2023/12/20 04:51:10;;;;;;;10.35;5.82;;;0.70;99.90;;;;;;5032407;28;20479;-58
2023/12/20 04:53:37;;;;;;;9.70;5.72;;;0.70;99.90;;;;;;5023523;28;20049;-58
2023/12/20 04:56:04;;;;;;;12.68;6.00;;;0.70;99.90;;;;;;5030645;28;20041;-58
2023/12/20 04:58:31;;;;;;;8.88;5.47;;;0.80;99.90;;;;;;5030301;28;20041;-58
2023/12/20 05:00:58;;;;;;;9.88;5.75;;;0.90;99.90;;;;;;5031943;28;20056;-59
2023/12/20 05:03:25;;;;;;;11.30;5.55;;;0.90;99.90;;;;;;5029054;28;20037;-56
2023/12/20 05:05:52;;;;;;;13.32;6.07;;;0.90;99.90;;;;;;5030719;28;20034;-58
2023/12/20 05:08:19;;;;;;;12.70;6.30;;;0.90;99.90;;;;;;5030585;28;20417;-56
2023/12/20 05:10:46;;;;;;;11.18;5.72;;;1.00;99.90;;;;;;5030003;28;20049;-59
2023/12/20 05:13:13;;;;;;;11.35;6.13;;;1.00;99.90;;;;;;5031669;28;20041;-57
2023/12/20 05:15:40;;;;;;;14.43;6.47;;;1.00;99.90;;;;;;5024677;28;20122;-58
2023/12/20 05:18:06;;;;;;;12.68;5.93;;;0.90;99.90;;;;;;5027543;28;20057;-58
2023/12/20 05:20:33;;;;;;;11.30;5.72;;;0.90;99.90;;;;;;5028708;28;20037;-58
2023/12/20 05:23:00;;;;;;;10.98;6.68;;;0.80;99.90;;;;;;5031915;28;20125;-55
2023/12/20 05:25:27;;;;;;;13.18;6.35;;;0.90;99.90;;;;;;5020829;28;20402;-59
2023/12/20 05:27:54;;;;;;;11.10;6.38;;;0.90;99.90;;;;;;5031871;28;20045;-59
2023/12/20 05:30:21;;;;;;;11.30;6.78;;;0.90;99.90;;;;;;5020495;28;20052;-56
2023/12/20 05:32:47;;;;;;;10.73;5.60;;;1.00;99.90;;;;;;5031307;28;20522;-59
2023/12/20 05:35:15;;;;;;;11.05;6.18;;;1.00;99.90;;;;;;5030569;28;20570;-58
2023/12/20 05:37:42;;;;;;;15.85;9.20;;;1.10;99.90;;;;;;5030745;28;20038;-57
2023/12/20 05:40:10;;;;;;;;;;;1.10;99.90;;;;;;5023162;28;20050;-59
2023/12/20 05:42:40;;;;;;;20.05;10.55;;;1.00;99.90;;;;;;5031555;28;19967;-58
2023/12/20 05:45:07;;;;;;;18.52;8.93;;;1.00;99.90;;;;;;5029467;28;20513;-58
2023/12/20 05:47:34;;;;;;;13.20;7.70;;;1.00;99.90;;;;;;5029408;28;20045;-56
2023/12/20 05:50:01;;;;;;;20.50;10.23;;;1.00;99.90;;;;;;5030503;28;20530;-57
2023/12/20 05:52:28;;;;;;;17.92;9.23;;;1.00;99.90;;;;;;5029700;28;20041;-56
2023/12/20 05:54:56;;;;;;;19.60;9.40;;;1.10;99.90;;;;;;5023644;28;20440;-57
2023/12/20 05:57:23;;;;;;;22.45;9.77;;;1.20;99.90;;;;;;5026715;28;20053;-59
2023/12/20 05:59:50;;;;;;;9.85;5.55;;;1.20;99.90;;;;;;5012160;28;20045;-58
2023/12/20 06:02:17;;;;;;;13.45;6.90;;;1.20;99.90;;;;;;5029250;28;20047;-58
2023/12/20 06:04:43;;;;;;;12.93;6.72;;;1.30;99.90;;;;;;5032750;28;20037;-56
2023/12/20 06:07:14;;;;;;;22.13;9.77;;;1.30;99.90;;;;;;5030675;28;20042;-58
2023/12/20 06:09:41;;;;;;;16.33;8.38;;;1.40;99.90;;;;;;5028772;28;20034;-58
2023/12/20 06:12:08;;;;;;;20.35;8.30;;;1.40;99.90;;;;;;5032391;28;20088;-58
2023/12/20 06:14:35;;;;;;;22.08;10.02;;;1.40;99.90;;;;;;5034700;28;20045;-59
2023/12/20 06:17:02;;;;;;;21.98;10.18;;;1.40;99.90;;;;;;5036823;28;20072;-57
2023/12/20 06:19:29;;;;;;;;;;;1.40;99.90;;;;;;5032029;28;20564;-59
2023/12/20 06:21:56;;;;;;;22.38;10.63;;;1.40;99.90;;;;;;5031045;28;19983;-59
2023/12/20 06:24:27;;;;;;;;;;;1.40;99.90;;;;;;5024774;28;20068;-58
2023/12/20 06:26:57;;;;;;;18.02;8.40;;;1.40;99.90;;;;;;5026092;28;19921;-59
2023/12/20 06:29:24;;;;;;;18.30;9.02;;;1.40;99.90;;;;;;5021074;28;20054;-57
2023/12/20 06:31:50;;;;;;;14.00;8.00;;;1.40;99.90;;;;;;5026989;28;20033;-60
2023/12/20 06:34:17;;;;;;;17.27;9.63;;;1.40;99.90;;;;;;5032685;28;20099;-54
2023/12/20 06:36:44;;;;;;;15.98;9.05;;;1.50;99.90;;;;;;5033698;28;20056;-59
2023/12/20 06:39:12;;;;;;;22.50;9.23;;;1.50;99.90;;;;;;5033186;28;20048;-59
2023/12/20 06:41:39;;;;;;;21.23;9.90;;;1.50;99.90;;;;;;5030241;28;20037;-58
2023/12/20 06:44:06;;;;;;;13.80;7.63;;;1.50;99.90;;;;;;5031840;28;20042;-57
2023/12/20 06:46:33;;;;;;;15.77;8.15;;;1.50;99.90;;;;;;5031291;28;20060;-55
2023/12/20 06:49:00;;;;;;;16.65;7.50;;;1.40;99.90;;;;;;5030958;28;20497;-57
2023/12/20 06:51:27;;;;;;;14.57;7.63;;;1.30;99.90;;;;;;5029284;28;20083;-58
2023/12/20 06:53:54;;;;;;;16.45;7.30;;;1.30;99.90;;;;;;5027261;28;20485;-58
2023/12/20 06:56:21;;;;;;;14.07;7.60;;;1.30;99.90;;;;;;5030552;28;20068;-56
2023/12/20 06:58:48;;;;;;;19.80;7.82;;;1.40;99.90;;;;;;5028990;28;20046;-57
2023/12/20 07:01:15;;;;;;;15.30;7.40;;;1.40;99.90;;;;;;5024130;28;20037;-56
2023/12/20 07:03:42;;;;;;;16.45;6.97;;;1.30;99.90;;;;;;5026286;28;20041;-57
2023/12/20 07:06:09;;;;;;;12.15;6.85;;;1.30;99.90;;;;;;5028911;28;20053;-59
2023/12/20 07:08:36;;;;;;;13.20;6.35;;;1.30;99.90;;;;;;5029546;28;20048;-58
2023/12/20 07:11:03;;;;;;;11.02;5.90;;;1.30;99.90;;;;;;5028142;28;20053;-58
2023/12/20 07:13:30;;;;;;;13.13;7.45;;;1.40;99.90;;;;;;5032509;28;20561;-58
2023/12/20 07:15:57;;;;;;;;;;;1.50;99.90;;;;;;5033785;28;20246;-59
2023/12/20 07:18:24;;;;;;;29.38;9.50;;;1.40;99.90;;;;;;5033709;28;19929;-58
2023/12/20 07:20:51;;;;;;;20.48;9.55;;;1.50;99.90;;;;;;5031544;28;20046;-55
2023/12/20 07:23:19;;;;;;;16.45;8.20;;;1.50;99.90;;;;;;5033565;28;20053;-55
2023/12/20 07:25:46;;;;;;;26.75;13.48;;;1.60;99.90;;;;;;5025328;28;20037;-58
2023/12/20 07:28:13;;;;;;;22.70;11.52;;;1.60;99.90;;;;;;5033707;28;20080;-57
2023/12/20 07:30:40;;;;;;;33.22;15.93;;;1.70;99.90;;;;;;5032578;28;20042;-58
2023/12/20 07:33:08;;;;;;;50.38;22.08;;;1.70;99.90;;;;;;5031588;28;20111;-58
2023/12/20 07:35:36;;;;;;;41.75;17.77;;;1.70;99.90;;;;;;5024389;28;20482;-54
2023/12/20 07:38:03;;;;;;;29.02;14.75;;;1.70;99.90;;;;;;5020380;28;20561;-58
2023/12/20 07:40:30;;;;;;;27.35;12.90;;;1.70;99.90;;;;;;5024817;28;20482;-58
2023/12/20 07:42:58;;;;;;;19.67;11.25;;;1.70;99.90;;;;;;5018681;28;20037;-58
2023/12/20 07:45:25;;;;;;;20.75;10.88;;;1.70;99.90;;;;;;5032699;28;20514;-56
2023/12/20 07:47:51;;;;;;;31.92;16.10;;;1.80;99.90;;;;;;5033406;28;20038;-57
2023/12/20 07:50:18;;;;;;;62.92;27.90;;;1.80;99.90;;;;;;5031767;28;20087;-57
2023/12/20 07:52:45;;;;;;;44.67;20.75;;;1.80;99.90;;;;;;5032929;28;20045;-57
2023/12/20 07:55:12;;;;;;;43.50;20.15;;;1.90;99.90;;;;;;5032007;28;20041;-58
2023/12/20 07:57:39;;;;;;;28.92;15.23;;;2.00;99.90;;;;;;5032544;28;20033;-58
2023/12/20 08:00:06;;;;;;;22.95;11.38;;;2.00;99.90;;;;;;5031635;28;20048;-58
2023/12/20 08:02:33;;;;;;;;;;;2.00;99.90;;;;;;5033235;28;20050;-59
2023/12/20 08:04:59;;;;;;;23.67;10.38;;;2.00;99.90;;;;;;5032220;28;20027;-57
2023/12/20 08:07:26;;;;;;;15.32;7.45;;;2.00;99.90;;;;;;5031171;28;20197;-55
2023/12/20 08:09:54;;;;;;;27.90;9.95;;;2.00;99.90;;;;;;5032805;28;20065;-58
2023/12/20 08:12:21;;;;;;;20.05;9.80;;;2.00;99.90;;;;;;5031055;28;20041;-58
2023/12/20 08:14:48;;;;;;;17.70;8.23;;;2.00;99.90;;;;;;5024395;28;20041;-59
2023/12/20 08:17:16;;;;;;;21.02;8.93;;;1.90;99.90;;;;;;5031753;28;20052;-58
2023/12/20 08:19:43;;;;;;;20.38;9.10;;;1.80;99.90;;;;;;5032204;28;20042;-59
2023/12/20 08:22:09;;;;;;;19.73;9.38;;;1.70;99.90;;;;;;5030219;28;20073;-57
2023/12/20 08:24:36;;;;;;;25.77;10.50;;;1.80;99.90;;;;;;5031991;28;20049;-59
2023/12/20 08:27:04;;;;;;;15.88;8.60;;;1.80;99.90;;;;;;5031987;28;20045;-58
2023/12/20 08:29:31;;;;;;;23.88;9.70;;;1.80;99.90;;;;;;5032390;28;20050;-58
2023/12/20 08:31:59;;;;;;;15.18;8.68;;;1.90;99.90;;;;;;5030101;28;20030;-56
2023/12/20 08:34:26;;;;;;;22.88;9.90;;;2.00;99.90;;;;;;5029224;28;20128;-58
2023/12/20 08:36:53;;;;;;;29.65;13.02;;;2.00;99.90;;;;;;5032139;28;20190;-56
2023/12/20 08:39:20;;;;;;;38.85;14.80;;;2.10;99.90;;;;;;5013168;28;20045;-58
2023/12/20 08:41:47;;;;;;;31.35;11.90;;;2.10;99.90;;;;;;5031253;28;20046;-56
2023/12/20 08:44:13;;;;;;;23.73;11.55;;;2.10;99.90;;;;;;5030771;28;20051;-57
2023/12/20 08:46:40;;;;;;;22.48;10.82;;;2.20;99.90;;;;;;5031727;28;20052;-58
2023/12/20 08:49:08;;;;;;;19.60;7.65;;;2.20;99.90;;;;;;5031805;28;20042;-58
2023/12/20 08:51:36;;;;;;;21.30;9.85;;;2.20;99.90;;;;;;5031155;28;20228;-57
2023/12/20 08:54:07;;;;;;;29.77;10.13;;;2.20;99.90;;;;;;5029799;28;20042;-58
2023/12/20 08:56:34;;;;;;;21.80;10.73;;;2.20;99.90;;;;;;5031372;28;20050;-55
2023/12/20 08:59:01;;;;;;;21.23;10.45;;;2.20;99.90;;;;;;5030966;28;20120;-58
2023/12/20 09:01:28;;;;;;;25.27;9.98;;;2.10;99.90;;;;;;5030018;28;20064;-57
2023/12/20 09:03:55;;;;;;;25.30;12.10;;;2.10;99.90;;;;;;5031830;28;20429;-58
2023/12/20 09:06:22;;;;;;;28.17;12.55;;;2.10;99.90;;;;;;5031396;28;20091;-57
2023/12/20 09:08:49;;;;;;;16.75;9.55;;;2.00;99.90;;;;;;5031803;28;20033;-57
2023/12/20 09:11:17;;;;;;;31.15;11.35;;;2.10;99.90;;;;;;5030212;28;20047;-58
2023/12/20 09:13:44;;;;;;;32.92;11.77;;;2.10;99.90;;;;;;5031228;28;20331;-57
2023/12/20 09:16:12;;;;;;;28.45;11.50;;;2.00;99.90;;;;;;5029960;28;20048;-59
2023/12/20 09:18:39;;;;;;;25.60;12.05;;;2.10;99.90;;;;;;5031310;28;20111;-57
2023/12/20 09:21:06;;;;;;;22.77;9.73;;;2.20;99.90;;;;;;5030770;28;20490;-54
2023/12/20 09:23:33;;;;;;;21.60;8.60;;;2.20;99.90;;;;;;5029252;28;20049;-54
2023/12/20 09:26:00;;;;;;;24.40;11.85;;;2.20;99.90;;;;;;5031288;28;20079;-59
2023/12/20 09:28:26;;;;;;;29.20;12.23;;;2.30;99.90;;;;;;5031242;28;20056;-57
2023/12/20 09:30:53;;;;;;;27.02;11.32;;;2.30;99.90;;;;;;5031335;28;20037;-59
2023/12/20 09:33:20;;;;;;;23.92;11.15;;;2.40;99.90;;;;;;5028019;28;20041;-59
2023/12/20 09:35:47;;;;;;;27.33;12.55;;;2.50;99.90;;;;;;5030065;28;20084;-57
2023/12/20 09:38:15;;;;;;;32.15;14.57;;;2.50;99.90;;;;;;5024924;28;20534;-58
2023/12/20 09:40:42;;;;;;;25.40;11.52;;;2.50;99.90;;;;;;5029879;28;20082;-57
2023/12/20 09:43:14;;;;;;;32.13;12.90;;;2.60;99.90;;;;;;5030535;28;20049;-58
2023/12/20 09:45:45;;;;;;;26.38;12.55;;;2.70;99.90;;;;;;5030723;28;20050;-56
2023/12/20 09:48:14;;;;;;;25.08;12.05;;;2.80;99.90;;;;;;5029819;28;20068;-54
2023/12/20 09:50:42;;;;;;;23.50;12.18;;;2.90;99.90;;;;;;5030961;28;20131;-54
2023/12/20 09:53:16;;;;;;;31.58;14.32;;;2.90;99.90;;;;;;5030549;28;20042;-59
2023/12/20 09:55:43;;;;;;;30.45;14.18;;;2.90;99.90;;;;;;5030512;28;20041;-59
2023/12/20 09:58:10;;;;;;;33.05;14.43;;;2.90;99.90;;;;;;5030611;28;20398;-57
2023/12/20 10:00:37;;;;;;;28.25;13.40;;;2.90;99.90;;;;;;5031031;28;20465;-56
2023/12/20 10:03:06;;;;;;;23.02;11.13;;;2.90;99.90;;;;;;5029649;28;20056;-58
2023/12/20 10:05:34;;;;;;;29.70;15.40;;;2.90;99.90;;;;;;5030440;28;20045;-59
2023/12/20 10:08:02;;;;;;;33.42;16.02;;;2.90;99.90;;;;;;5031003;28;20441;-54
2023/12/20 10:10:30;;;;;;;38.30;17.63;;;3.00;99.90;;;;;;5028360;28;20060;-58
2023/12/20 10:13:12;;;;;;;38.50;19.30;;;3.00;99.90;;;;;;5024275;28;20422;-56
2023/12/20 10:15:40;;;;;;;32.47;17.70;;;3.00;99.90;;;;;;5029944;28;20052;-58
2023/12/20 10:18:08;;;;;;;36.58;18.90;;;3.10;99.90;;;;;;5030989;28;20034;-57
2023/12/20 10:20:36;;;;;;;39.80;18.05;;;3.10;99.90;;;;;;5028346;28;20052;-57
2023/12/20 10:23:05;;;;;;;38.53;16.50;;;3.00;99.90;;;;;;5029665;28;20051;-57
2023/12/20 10:25:32;;;;;;;32.22;15.82;;;3.00;99.90;;;;;;5029392;28;20059;-58
2023/12/20 10:28:34;;;;;;;33.05;14.82;;;3.00;99.90;;;;;;5029670;28;20046;-56
2023/12/20 10:31:01;;;;;;;28.23;13.32;;;3.00;99.90;;;;;;5020805;28;20049;-58
2023/12/20 10:33:32;;;;;;;29.92;14.10;;;3.00;99.90;;;;;;5028406;28;20088;-57
2023/12/20 10:35:59;;;;;;;32.03;14.90;;;3.00;99.90;;;;;;5030242;28;20513;-56
2023/12/20 10:38:26;;;;;;;24.73;13.23;;;3.00;99.90;;;;;;5030802;28;20054;-56
2023/12/20 10:40:58;;;;;;;29.00;13.27;;;3.10;99.90;;;;;;5028084;28;20094;-58
2023/12/20 10:43:28;;;;;;;28.80;12.63;;;3.10;99.90;;;;;;5030558;28;20041;-57
2023/12/20 10:45:55;;;;;;;26.20;12.50;;;3.20;99.90;;;;;;5027295;28;20119;-58
2023/12/20 10:48:26;;;;;;;26.40;13.05;;;3.10;99.90;;;;;;5034843;28;20486;-58
2023/12/20 10:50:55;;;;;;;20.48;11.45;;;3.20;99.90;;;;;;5033319;28;20441;-59
2023/12/20 10:53:24;;;;;;;23.50;11.77;;;3.20;99.90;;;;;;5034105;28;20072;-57
2023/12/20 10:55:55;;;;;;;26.05;11.85;;;3.20;99.90;;;;;;5032628;28;20052;-55
2023/12/20 10:58:24;;;;;;;28.63;13.05;;;3.10;99.90;;;;;;5034599;28;20487;-57
2023/12/20 11:00:56;;;;;;;27.92;12.98;;;3.10;99.90;;;;;;5034113;28;20064;-57
2023/12/20 11:03:25;;;;;;;29.15;12.48;;;3.10;99.90;;;;;;5032755;28;20136;-58
2023/12/20 11:06:22;;;;;;;29.98;12.60;;;3.10;99.90;;;;;;5033551;28;20100;-59
2023/12/20 11:09:12;;;;;;;22.30;11.63;;;3.20;99.90;;;;;;5029177;28;20063;-58
2023/12/20 11:12:25;;;;;;;24.20;11.75;;;3.30;99.90;;;;;;5034401;28;20056;-57
2023/12/20 11:14:57;;;;;;;25.38;12.20;;;3.30;99.90;;;;;;5029703;28;20089;-57
2023/12/20 11:17:24;;;;;;;28.48;11.38;;;3.40;99.90;;;;;;5033098;28;20130;-57
2023/12/20 11:19:56;;;;;;;29.95;11.43;;;3.50;99.90;;;;;;5033564;28;20414;-58
2023/12/20 11:22:30;;;;;;;26.45;11.32;;;3.60;99.90;;;;;;5031667;28;20045;-56
2023/12/20 11:25:10;;;;;;;22.58;10.50;;;3.70;99.90;;;;;;5033629;28;20041;-58
2023/12/20 11:27:45;;;;;;;25.40;10.27;;;3.70;99.90;;;;;;5033672;28;20441;-60
2023/12/20 11:30:15;;;;;;;16.55;8.25;;;3.70;99.90;;;;;;5032440;28;20049;-59
2023/12/20 11:32:43;;;;;;;27.40;12.10;;;3.80;99.90;;;;;;5033275;28;20045;-58
2023/12/20 11:35:10;;;;;;;25.05;10.88;;;3.80;99.90;;;;;;5033385;28;20037;-58
2023/12/20 11:37:42;;;;;;;23.58;13.50;;;3.90;99.90;;;;;;5033388;28;20226;-58
2023/12/20 11:40:18;;;;;;;22.73;12.77;;;4.10;99.90;;;;;;5027909;28;20103;-58
2023/12/20 11:42:48;;;;;;;24.60;11.48;;;4.20;99.90;;;;;;5030029;28;20104;-56
2023/12/20 11:45:19;;;;;;;27.08;12.18;;;4.30;99.90;;;;;;5026805;28;20046;-58
2023/12/20 11:47:49;;;;;;;22.17;11.52;;;4.40;99.90;;;;;;5018102;28;20045;-57
2023/12/20 11:50:21;;;;;;;20.75;10.88;;;4.50;99.90;;;;;;5024940;28;20115;-57
2023/12/20 11:52:49;;;;;;;19.50;11.02;;;4.60;99.90;;;;;;5032469;28;20061;-58
2023/12/20 11:55:16;;;;;;;21.42;10.63;;;4.60;99.90;;;;;;5032280;28;20045;-56
2023/12/20 11:57:44;;;;;;;19.58;10.90;;;4.60;99.90;;;;;;5031295;28;20414;-57
2023/12/20 12:00:13;;;;;;;25.65;11.57;;;4.60;99.90;;;;;;5033065;28;20487;-58
2023/12/20 12:02:41;;;;;;;21.95;10.60;;;4.60;99.90;;;;;;5032630;28;20049;-59
2023/12/20 12:05:07;;;;;;;;;;;4.60;99.90;;;;;;5033156;28;20513;-59
2023/12/20 12:07:35;;;;;;;21.35;11.63;;;4.60;99.90;;;;;;5031118;28;20015;-59
2023/12/20 12:10:03;;;;;;;19.30;10.13;;;4.60;99.90;;;;;;5032817;28;20053;-59
2023/12/20 12:12:30;;;;;;;26.38;10.13;;;4.60;99.90;;;;;;5030733;28;20037;-55
2023/12/20 12:14:57;;;;;;;;;;;4.60;99.90;;;;;;5032774;28;20124;-56
2023/12/20 12:17:25;;;;;;;20.00;9.27;;;4.60;99.90;;;;;;5031356;28;20400;-57
2023/12/20 12:20:03;;;;;;;17.88;9.27;;;4.60;99.90;;;;;;5032024;28;20504;-57
2023/12/20 12:22:30;;;;;;;23.95;9.90;;;4.50;99.90;;;;;;5031401;28;20091;-60
2023/12/20 12:25:08;;;;;;;16.33;8.98;;;4.50;99.90;;;;;;5032346;28;20052;-59
2023/12/20 12:27:35;;;;;;;16.38;8.13;;;4.50;99.90;;;;;;5032676;28;20057;-56
2023/12/20 12:30:03;;;;;;;14.40;7.80;;;4.60;99.90;;;;;;5030876;28;20048;-54
2023/12/20 12:32:32;;;;;;;14.90;8.27;;;4.70;99.90;;;;;;5032775;28;20045;-57
2023/12/20 12:34:59;;;;;;;17.98;9.18;;;4.80;99.90;;;;;;5030800;28;20394;-57
2023/12/20 12:37:26;;;;;;;12.32;7.05;;;4.90;99.90;;;;;;5032228;28;20037;-60
2023/12/20 12:39:54;;;;;;;14.43;8.05;;;4.90;99.90;;;;;;5032319;28;20046;-57
2023/12/20 12:42:25;;;;;;;12.18;7.88;;;4.90;99.90;;;;;;5030858;28;20064;-60
2023/12/20 12:44:52;;;;;;;16.17;7.97;;;5.00;99.90;;;;;;5032032;28;20505;-57
2023/12/20 12:47:19;;;;;;;16.08;8.02;;;5.10;99.90;;;;;;5031565;28;20401;-60
2023/12/20 12:49:46;;;;;;;20.48;11.02;;;5.20;99.90;;;;;;5032208;28;20128;-55
2023/12/20 12:52:12;;;;;;;31.40;15.80;;;5.30;99.90;;;;;;5030538;28;20085;-58